Time;durP1;ratioP1;P1;durP2;ratioP2;P2;SDS_P1;SDS_P2;PMS_P1;PMS_P2;Temp;Humidity;BMP_temperature;BMP_pressure;BME280_temperature;BME280_humidity;BME280_pressure;Samples;Min_cycle;Max_cycle;Signal;HPM_P1;HPM_P2
2022/06/15 00:01:59;;;;;;;297.97;146.93;;;;;;;;;;4976729;28;20760;-52
2022/06/15 00:04:26;;;;;;;289.30;143.27;;;;;;;;;;4977047;28;20243;-53
2022/06/15 00:06:53;;;;;;;286.30;147.70;;;;;;;;;;4973476;28;20223;-52
2022/06/15 00:09:19;;;;;;;346.97;163.00;;;;;;;;;;4974641;28;20248;-52
2022/06/15 00:11:45;;;;;;;246.00;128.10;;;;;;;;;;4969974;28;20196;-53
2022/06/15 00:14:13;;;;;;;301.50;148.00;;;;;;;;;;4978233;28;20276;-53
2022/06/15 00:16:39;;;;;;;340.03;157.83;;;;;;;;;;4986038;28;20213;-53
2022/06/15 00:19:05;;;;;;;261.20;132.93;;;;;;;;;;4972533;28;20637;-52
2022/06/15 00:21:31;;;;;;;342.07;161.70;;;;;;;;;;4963731;28;20217;-53
2022/06/15 00:23:57;;;;;;;337.40;159.97;;;;;;;;;;4971506;28;20682;-52
2022/06/15 00:26:24;;;;;;;262.70;130.87;;;;;;;;;;4976339;28;20212;-52
2022/06/15 00:28:53;;;;;;;283.37;140.90;;;;;;;;;;4986744;28;20885;-53
2022/06/15 00:31:20;;;;;;;284.07;140.87;;;;;;;;;;4978424;28;20212;-52
2022/06/15 00:33:46;;;;;;;291.23;142.63;;;;;;;;;;4973768;28;20228;-53
2022/06/15 00:36:14;;;;;;;299.63;145.00;;;;;;;;;;4979905;28;20470;-52
2022/06/15 00:38:41;;;;;;;190.83;112.83;;;;;;;;;;4976325;28;20221;-53
2022/06/15 00:41:10;;;;;;;258.23;129.40;;;;;;;;;;4972159;28;20216;-53
2022/06/15 00:43:38;;;;;;;241.43;125.90;;;;;;;;;;4982155;28;20209;-53
2022/06/15 00:46:23;;;;;;;213.80;117.10;;;;;;;;;;4985682;28;20678;-52
2022/06/15 00:48:51;;;;;;;307.37;149.53;;;;;;;;;;4984171;28;20637;-52
2022/06/15 00:51:17;;;;;;;254.37;130.47;;;;;;;;;;4983561;28;20670;-53
2022/06/15 00:53:43;;;;;;;237.43;124.07;;;;;;;;;;4976000;28;20204;-52
2022/06/15 00:56:09;;;;;;;289.27;141.80;;;;;;;;;;4971742;28;20880;-52
2022/06/15 00:58:37;;;;;;;265.53;131.97;;;;;;;;;;4978719;28;20284;-52
2022/06/15 01:01:04;;;;;;;269.27;133.97;;;;;;;;;;4980497;28;20665;-52
2022/06/15 01:03:29;;;;;;;257.67;132.03;;;;;;;;;;4984806;28;20221;-52
2022/06/15 01:06:14;;;;;;;256.47;133.10;;;;;;;;;;4979981;28;20385;-52
2022/06/15 01:08:40;;;;;;;196.80;111.90;;;;;;;;;;4988845;28;20213;-53
2022/06/15 01:11:19;;;;;;;272.10;137.90;;;;;;;;;;4982883;28;20751;-53
2022/06/15 01:13:58;;;;;;;305.93;153.07;;;;;;;;;;4978984;28;20225;-53
2022/06/15 01:16:42;;;;;;;265.20;134.40;;;;;;;;;;4980926;28;20602;-53
2022/06/15 01:19:20;;;;;;;248.03;129.53;;;;;;;;;;4989672;28;20233;-52
2022/06/15 01:21:50;;;;;;;324.30;156.33;;;;;;;;;;4970961;28;20229;-53
2022/06/15 01:24:38;;;;;;;358.03;169.03;;;;;;;;;;4963425;28;20230;-53
2022/06/15 01:27:21;;;;;;;300.10;146.93;;;;;;;;;;4977763;28;20244;-53
2022/06/15 01:30:06;;;;;;;219.33;119.97;;;;;;;;;;4982953;28;20482;-52
2022/06/15 01:32:39;;;;;;;342.57;164.47;;;;;;;;;;4975392;28;20284;-52
2022/06/15 01:35:11;;;;;;;312.60;155.33;;;;;;;;;;4981724;28;20887;-53
2022/06/15 01:37:42;;;;;;;210.43;118.43;;;;;;;;;;4977304;28;20232;-53
2022/06/15 01:40:14;;;;;;;269.03;135.93;;;;;;;;;;4960617;28;20316;-53
2022/06/15 01:42:45;;;;;;;395.23;188.07;;;;;;;;;;4975490;28;21858;-53
2022/06/15 01:45:13;;;;;;;287.40;144.70;;;;;;;;;;4974046;28;20251;-52
2022/06/15 01:47:41;;;;;;;260.23;133.60;;;;;;;;;;4987264;28;20597;-52
2022/06/15 01:50:10;;;;;;;300.17;151.10;;;;;;;;;;4971084;28;20287;-53
2022/06/15 01:52:42;;;;;;;298.50;151.13;;;;;;;;;;4974197;28;20217;-53
2022/06/15 01:55:20;;;;;;;336.63;164.13;;;;;;;;;;4970454;28;20307;-52
2022/06/15 01:57:48;;;;;;;352.07;174.47;;;;;;;;;;4976627;28;20593;-52
2022/06/15 02:00:19;;;;;;;242.43;130.40;;;;;;;;;;4975627;28;20310;-52
2022/06/15 02:02:52;;;;;;;211.73;120.73;;;;;;;;;;4983349;28;20408;-52
2022/06/15 02:05:22;;;;;;;225.47;125.20;;;;;;;;;;4978434;28;20311;-52
2022/06/15 02:07:54;;;;;;;216.03;121.80;;;;;;;;;;4979497;28;20224;-52
2022/06/15 02:10:23;;;;;;;290.33;149.53;;;;;;;;;;4977662;28;20340;-53
2022/06/15 02:12:56;;;;;;;205.00;120.57;;;;;;;;;;4974899;28;20693;-52
2022/06/15 02:15:27;;;;;;;246.90;131.97;;;;;;;;;;4990970;28;20224;-52
2022/06/15 02:17:54;;;;;;;194.40;114.67;;;;;;;;;;4995691;28;20223;-53
2022/06/15 02:20:23;;;;;;;252.27;133.93;;;;;;;;;;4982470;28;20220;-53
2022/06/15 02:22:51;;;;;;;204.17;119.20;;;;;;;;;;4977571;28;20357;-53
2022/06/15 02:25:19;;;;;;;229.97;123.33;;;;;;;;;;4986175;28;20222;-53
2022/06/15 02:27:45;;;;;;;281.90;145.30;;;;;;;;;;4980099;28;20329;-53
2022/06/15 02:30:14;;;;;;;207.23;117.50;;;;;;;;;;4989402;28;20222;-53
2022/06/15 02:32:42;;;;;;;221.23;124.60;;;;;;;;;;4984839;28;20213;-53
2022/06/15 02:35:08;;;;;;;292.17;147.73;;;;;;;;;;4972359;28;20738;-53
2022/06/15 02:37:34;;;;;;;285.60;148.07;;;;;;;;;;4966842;28;20235;-52
2022/06/15 02:40:00;;;;;;;308.30;155.03;;;;;;;;;;4963229;28;20430;-53
2022/06/15 02:42:31;;;;;;;209.57;120.83;;;;;;;;;;4975231;28;21843;-53
2022/06/15 02:45:07;;;;;;;204.67;119.53;;;;;;;;;;4975680;28;21963;-53
2022/06/15 02:47:34;;;;;;;305.40;155.40;;;;;;;;;;4972505;28;20185;-52
2022/06/15 02:50:01;;;;;;;203.93;119.70;;;;;;;;;;4981754;28;20221;-52
2022/06/15 02:52:31;;;;;;;180.77;110.40;;;;;;;;;;4975639;28;20785;-52
2022/06/15 02:54:57;;;;;;;340.70;168.47;;;;;;;;;;4968994;28;20283;-52
2022/06/15 02:57:23;;;;;;;280.17;145.53;;;;;;;;;;4977264;28;20300;-52
2022/06/15 02:59:50;;;;;;;294.27;149.50;;;;;;;;;;4966757;28;20768;-53
2022/06/15 03:02:16;;;;;;;280.77;142.97;;;;;;;;;;4975840;28;20178;-52
2022/06/15 03:04:43;;;;;;;228.43;125.07;;;;;;;;;;4972913;28;20518;-52
2022/06/15 03:07:11;;;;;;;302.17;154.67;;;;;;;;;;4967906;28;20213;-53
2022/06/15 03:09:37;;;;;;;299.13;154.70;;;;;;;;;;4962296;28;20221;-52
2022/06/15 03:12:03;;;;;;;252.40;135.63;;;;;;;;;;4973092;28;20763;-53
2022/06/15 03:14:29;;;;;;;217.50;124.97;;;;;;;;;;4977619;28;20177;-53
2022/06/15 03:16:55;;;;;;;221.23;125.60;;;;;;;;;;4981875;28;20744;-52
2022/06/15 03:19:21;;;;;;;238.00;129.90;;;;;;;;;;4970634;28;20240;-51
2022/06/15 03:21:46;;;;;;;169.67;108.77;;;;;;;;;;4974994;28;20225;-53
2022/06/15 03:24:12;;;;;;;340.23;165.90;;;;;;;;;;4975878;28;20219;-52
2022/06/15 03:26:38;;;;;;;304.83;152.97;;;;;;;;;;4969265;28;20200;-52
2022/06/15 03:29:05;;;;;;;237.33;124.50;;;;;;;;;;4982249;28;20197;-54
2022/06/15 03:31:31;;;;;;;284.30;142.27;;;;;;;;;;4977886;28;20225;-53
2022/06/15 03:33:57;;;;;;;335.03;165.17;;;;;;;;;;4971272;28;20221;-53
2022/06/15 03:36:22;;;;;;;340.73;165.83;;;;;;;;;;4970726;28;20283;-54
2022/06/15 03:38:48;;;;;;;302.30;150.57;;;;;;;;;;4977762;28;20216;-51
2022/06/15 03:41:15;;;;;;;312.03;152.33;;;;;;;;;;4986755;28;20216;-52
2022/06/15 03:43:41;;;;;;;266.37;135.83;;;;;;;;;;4981190;28;20559;-53
2022/06/15 03:46:07;;;;;;;396.50;190.87;;;;;;;;;;4972216;28;20229;-52
2022/06/15 03:48:33;;;;;;;359.37;170.53;;;;;;;;;;4977737;28;20227;-53
2022/06/15 03:50:59;;;;;;;321.80;156.60;;;;;;;;;;4978024;28;20299;-52
2022/06/15 03:53:25;;;;;;;319.63;154.20;;;;;;;;;;4977616;28;20312;-52
2022/06/15 03:55:51;;;;;;;436.40;205.70;;;;;;;;;;4969612;28;20707;-52
2022/06/15 03:58:18;;;;;;;395.50;188.00;;;;;;;;;;4979755;28;20229;-53
2022/06/15 04:00:44;;;;;;;304.70;150.40;;;;;;;;;;4975320;28;20216;-52
2022/06/15 04:03:10;;;;;;;326.33;154.40;;;;;;;;;;4982437;28;20217;-52
2022/06/15 04:05:39;;;;;;;279.90;140.10;;;;;;;;;;4973300;28;20181;-53
2022/06/15 04:10:50;;;;;;;311.83;151.13;;;;;;;;;;4983313;28;20593;-53
2022/06/15 04:13:20;;;;;;;308.40;154.60;;;;;;;;;;4979936;28;20214;-53
2022/06/15 04:15:46;;;;;;;301.93;150.70;;;;;;;;;;4979460;28;20216;-52
2022/06/15 04:18:12;;;;;;;278.50;149.33;;;;;;;;;;4981854;28;20316;-53
2022/06/15 04:20:40;;;;;;;342.50;166.27;;;;;;;;;;4978762;28;20641;-52
2022/06/15 04:23:11;;;;;;;337.90;160.37;;;;;;;;;;4974878;28;20183;-53
2022/06/15 04:25:42;;;;;;;401.40;186.57;;;;;;;;;;4989070;28;20221;-53
2022/06/15 04:28:08;;;;;;;371.87;174.53;;;;;;;;;;4982758;28;20227;-54
2022/06/15 04:30:34;;;;;;;164.17;108.40;;;;;;;;;;4985145;28;20224;-53
2022/06/15 04:33:01;;;;;;;141.40;97.40;;;;;;;;;;4987407;28;20828;-52
2022/06/15 04:35:27;;;;;;;199.83;115.50;;;;;;;;;;4986022;28;20220;-52
2022/06/15 04:37:54;;;;;;;142.93;94.87;;;;;;;;;;4988497;28;20221;-52
2022/06/15 04:40:20;;;;;;;180.53;106.77;;;;;;;;;;4993014;28;20272;-53
2022/06/15 04:42:46;;;;;;;124.93;87.60;;;;;;;;;;4989413;28;20212;-53
2022/06/15 04:45:13;;;;;;;144.90;94.70;;;;;;;;;;4992718;28;20217;-54
2022/06/15 04:47:39;;;;;;;174.50;103.80;;;;;;;;;;4984768;28;20189;-53
2022/06/15 04:50:06;;;;;;;143.68;94.47;;;;;;;;;;4992064;28;20173;-53
2022/06/15 04:52:32;;;;;;;194.52;105.75;;;;;;;;;;4988422;28;20213;-53
2022/06/15 04:54:58;;;;;;;215.35;115.28;;;;;;;;;;4986721;28;20217;-53
2022/06/15 04:57:24;;;;;;;187.00;109.07;;;;;;;;;;4991938;28;20231;-53
2022/06/15 04:59:50;;;;;;;187.97;107.80;;;;;;;;;;4976677;28;20189;-54
2022/06/15 05:02:16;;;;;;;133.37;92.97;;;;;;;;;;4990460;28;20173;-54
2022/06/15 05:04:42;;;;;;;148.43;97.23;;;;;;;;;;4984070;28;20757;-54
2022/06/15 05:07:08;;;;;;;207.88;113.25;;;;;;;;;;4986336;28;20289;-54
2022/06/15 05:09:35;;;;;;;205.27;103.13;;;;;;;;;;4991726;28;20244;-53
2022/06/15 05:12:01;;;;;;;116.40;85.97;;;;;;;;;;4977780;28;20283;-54
2022/06/15 05:14:27;;;;;;;277.00;113.57;;;;;;;;;;4970594;28;20177;-54
2022/06/15 05:16:53;;;;;;;104.07;77.13;;;;;;;;;;4979967;28;20300;-53
2022/06/15 05:19:19;;;;;;;80.33;71.80;;;;;;;;;;4996052;28;20240;-53
2022/06/15 05:21:45;;;;;;;73.55;66.88;;;;;;;;;;5000155;28;20701;-55
2022/06/15 05:24:11;;;;;;;76.00;68.38;;;;;;;;;;5001239;28;20316;-54
2022/06/15 05:26:38;;;;;;;73.50;60.53;;;;;;;;;;4994720;28;20260;-55
2022/06/15 05:29:04;;;;;;;73.72;56.53;;;;;;;;;;4997632;28;20201;-54
2022/06/15 05:31:30;;;;;;;67.38;46.65;;;;;;;;;;4997673;28;20271;-52
2022/06/15 05:33:57;;;;;;;87.53;48.45;;;;;;;;;;4997876;28;20710;-54
2022/06/15 05:36:27;;;;;;;210.43;67.70;;;;;;;;;;4983076;28;20221;-54
2022/06/15 05:38:53;;;;;;;260.33;76.93;;;;;;;;;;4962529;28;20217;-54
2022/06/15 05:41:20;;;;;;;198.80;58.35;;;;;;;;;;4978129;28;20188;-54
2022/06/15 05:46:47;;;;;;;271.20;72.22;;;;;;;;;;4962312;28;20232;-51
2022/06/15 05:49:13;;;;;;;159.48;53.08;;;;;;;;;;4976145;28;20984;-50
2022/06/15 05:51:41;;;;;;;129.35;46.35;;;;;;;;;;4985600;28;20348;-52
2022/06/15 05:54:07;;;;;;;225.77;69.13;;;;;;;;;;4977910;28;20623;-50
2022/06/15 05:56:33;;;;;;;153.27;52.85;;;;;;;;;;4979086;28;21879;-51
2022/06/15 05:59:00;;;;;;;146.63;54.13;;;;;;;;;;4981537;28;20235;-52
2022/06/15 06:01:28;;;;;;;175.55;61.08;;;;;;;;;;4975031;28;20221;-54
2022/06/15 06:03:54;;;;;;;90.03;46.47;;;;;;;;;;4988650;28;20217;-54
2022/06/15 06:06:20;;;;;;;209.77;75.95;;;;;;;;;;4976914;28;20213;-53
2022/06/15 06:08:46;;;;;;;226.52;81.47;;;;;;;;;;4982827;28;20292;-54
2022/06/15 06:11:12;;;;;;;223.18;86.63;;;;;;;;;;4980570;28;20185;-53
2022/06/15 06:13:38;;;;;;;155.25;83.70;;;;;;;;;;4988889;28;20216;-53
2022/06/15 06:16:04;;;;;;;160.98;90.93;;;;;;;;;;4982293;28;20237;-53
2022/06/15 06:18:30;;;;;;;148.55;94.47;;;;;;;;;;4978650;28;20236;-54
2022/06/15 06:20:56;;;;;;;112.03;90.22;;;;;;;;;;4970637;28;20256;-55
2022/06/15 06:23:22;;;;;;;127.97;96.47;;;;;;;;;;4985500;28;20259;-53
2022/06/15 06:25:50;;;;;;;185.32;117.60;;;;;;;;;;4981162;28;20557;-54
2022/06/15 06:28:30;;;;;;;138.60;108.55;;;;;;;;;;4990690;28;20248;-54
2022/06/15 06:31:00;;;;;;;126.55;106.82;;;;;;;;;;4992181;28;20633;-55
2022/06/15 06:33:27;;;;;;;171.55;123.18;;;;;;;;;;4997452;28;20274;-54
2022/06/15 06:35:54;;;;;;;145.45;116.57;;;;;;;;;;4992096;28;20645;-55
2022/06/15 06:38:21;;;;;;;149.50;114.10;;;;;;;;;;4993013;28;20296;-54
2022/06/15 06:40:47;;;;;;;213.40;146.75;;;;;;;;;;4987468;28;20213;-54
2022/06/15 06:43:13;;;;;;;155.20;125.45;;;;;;;;;;4992756;28;20238;-54
2022/06/15 06:45:39;;;;;;;201.32;142.82;;;;;;;;;;4985019;28;20686;-54
2022/06/15 06:48:05;;;;;;;176.00;133.68;;;;;;;;;;4988420;28;20225;-54
2022/06/15 06:50:31;;;;;;;191.00;133.55;;;;;;;;;;4991120;28;20185;-54
2022/06/15 06:52:57;;;;;;;334.48;191.57;;;;;;;;;;4979761;28;20566;-53
2022/06/15 06:55:27;;;;;;;268.38;164.38;;;;;;;;;;4983779;28;20224;-54
2022/06/15 06:57:57;;;;;;;211.32;142.00;;;;;;;;;;4985766;28;20221;-54
2022/06/15 07:00:23;;;;;;;326.58;192.05;;;;;;;;;;4978791;28;20221;-53
2022/06/15 07:02:49;;;;;;;200.20;140.75;;;;;;;;;;4982688;28;20186;-53
2022/06/15 07:05:15;;;;;;;228.05;148.00;;;;;;;;;;4981911;28;20221;-54
2022/06/15 07:07:41;;;;;;;221.02;144.73;;;;;;;;;;4981801;28;20221;-53
2022/06/15 07:10:07;;;;;;;173.18;130.85;;;;;;;;;;4997462;28;20309;-54
2022/06/15 07:12:33;;;;;;;153.38;129.63;;;;;;;;;;4981780;28;20373;-54
2022/06/15 07:14:59;;;;;;;244.65;162.48;;;;;;;;;;4980005;28;20221;-54
2022/06/15 07:17:25;;;;;;;266.63;166.30;;;;;;;;;;4986804;28;20669;-55
2022/06/15 07:19:51;;;;;;;226.70;158.38;;;;;;;;;;4986191;28;21006;-54
2022/06/15 07:22:17;;;;;;;200.35;147.30;;;;;;;;;;4985062;28;20267;-54
2022/06/15 07:24:43;;;;;;;222.85;153.98;;;;;;;;;;4982945;28;20212;-54
2022/06/15 07:27:09;;;;;;;231.15;154.85;;;;;;;;;;4986044;28;20221;-54
2022/06/15 07:29:35;;;;;;;254.18;162.38;;;;;;;;;;4986611;28;20213;-55
2022/06/15 07:32:01;;;;;;;286.58;177.65;;;;;;;;;;4976139;28;20299;-54
2022/06/15 07:34:27;;;;;;;170.02;135.43;;;;;;;;;;4980315;28;20248;-54
2022/06/15 07:36:53;;;;;;;163.48;131.95;;;;;;;;;;4996610;28;20202;-57
2022/06/15 07:39:27;;;;;;;265.25;174.82;;;;;;;;;;4982117;28;20256;-57
2022/06/15 07:41:53;;;;;;;238.63;160.32;;;;;;;;;;4981248;28;20208;-57
2022/06/15 07:44:20;;;;;;;329.30;198.35;;;;;;;;;;4982387;28;20224;-57
2022/06/15 07:46:46;;;;;;;331.25;209.70;;;;;;;;;;4984227;28;20727;-57
2022/06/15 07:52:00;;;;;;;292.67;184.20;;;;;;;;;;4976670;28;20324;-57
2022/06/15 07:54:26;;;;;;;229.45;160.07;;;;;;;;;;4983379;28;20224;-57
2022/06/15 07:56:53;;;;;;;285.00;176.02;;;;;;;;;;4985883;28;20185;-57
2022/06/15 07:59:20;;;;;;;293.83;181.88;;;;;;;;;;4986011;28;20272;-56
2022/06/15 08:01:46;;;;;;;258.48;167.57;;;;;;;;;;4989337;28;20209;-56
2022/06/15 08:04:12;;;;;;;229.98;153.63;;;;;;;;;;4988905;28;20352;-56
2022/06/15 08:06:41;;;;;;;295.45;186.23;;;;;;;;;;4989452;28;20214;-57
2022/06/15 08:09:09;;;;;;;288.55;177.63;;;;;;;;;;4980568;28;20228;-57
2022/06/15 08:11:35;;;;;;;311.75;186.27;;;;;;;;;;4988010;28;20201;-56
2022/06/15 08:14:01;;;;;;;226.68;150.73;;;;;;;;;;4988683;28;20229;-56
2022/06/15 08:16:27;;;;;;;215.52;144.00;;;;;;;;;;4999877;28;20621;-54
2022/06/15 08:18:59;;;;;;;213.30;141.25;;;;;;;;;;5008636;28;20732;-54
2022/06/15 08:21:27;;;;;;;244.02;158.18;;;;;;;;;;5011874;28;20223;-54
2022/06/15 08:23:54;;;;;;;234.52;149.15;;;;;;;;;;5006561;28;20188;-54
2022/06/15 08:26:22;;;;;;;226.80;148.63;;;;;;;;;;4999910;28;20239;-54
2022/06/15 08:28:51;;;;;;;210.80;143.43;;;;;;;;;;5005398;28;20217;-55
2022/06/15 08:31:17;;;;;;;243.30;155.90;;;;;;;;;;5003849;28;20629;-54
2022/06/15 08:33:43;;;;;;;233.70;149.57;;;;;;;;;;5004633;28;20617;-54
2022/06/15 08:36:11;;;;;;;235.75;151.98;;;;;;;;;;5003057;28;20220;-54
2022/06/15 08:38:37;;;;;;;220.98;149.02;;;;;;;;;;5002808;28;20196;-54
2022/06/15 08:41:07;;;;;;;234.48;151.45;;;;;;;;;;5006365;28;20719;-54
2022/06/15 08:43:55;;;;;;;234.50;152.57;;;;;;;;;;5000967;28;20557;-54
2022/06/15 08:46:21;;;;;;;235.00;154.02;;;;;;;;;;5010325;28;20227;-55
2022/06/15 08:49:05;;;;;;;197.27;137.50;;;;;;;;;;5009664;28;20721;-54
2022/06/15 08:51:36;;;;;;;259.13;163.57;;;;;;;;;;5002891;28;20220;-54
2022/06/15 08:54:04;;;;;;;242.93;158.80;;;;;;;;;;5000689;28;20217;-55
2022/06/15 08:56:41;;;;;;;237.10;156.63;;;;;;;;;;5009740;28;20201;-55
2022/06/15 08:59:10;;;;;;;263.30;167.60;;;;;;;;;;5009807;28;20224;-53
2022/06/15 09:01:42;;;;;;;233.57;154.63;;;;;;;;;;4998277;28;20212;-55
2022/06/15 09:04:19;;;;;;;247.23;161.52;;;;;;;;;;5002896;28;20303;-55
2022/06/15 09:06:53;;;;;;;241.52;159.73;;;;;;;;;;5008884;28;20831;-53
2022/06/15 09:09:38;;;;;;;274.98;173.63;;;;;;;;;;5002533;28;20231;-54
2022/06/15 09:15:07;;;;;;;278.30;180.10;;;;;;;;;;4991421;28;20200;-54
2022/06/15 09:17:33;;;;;;;271.45;176.27;;;;;;;;;;4991202;28;20188;-55
2022/06/15 09:20:05;;;;;;;286.75;186.15;;;;;;;;;;4989105;28;20631;-55
2022/06/15 09:22:34;;;;;;;349.05;222.85;;;;;;;;;;4986649;28;20217;-54
2022/06/15 09:25:08;;;;;;;238.73;162.65;;;;;;;;;;4991794;28;20594;-54
2022/06/15 09:27:54;;;;;;;285.95;187.30;;;;;;;;;;4987356;28;20689;-54
2022/06/15 09:30:22;;;;;;;255.57;174.18;;;;;;;;;;4991377;28;20224;-55
2022/06/15 09:32:52;;;;;;;237.60;165.85;;;;;;;;;;4995239;28;20592;-55
2022/06/15 09:35:25;;;;;;;302.88;178.45;;;;;;;;;;4991384;28;20197;-55
2022/06/15 09:37:55;;;;;;;285.27;191.73;;;;;;;;;;4983580;28;20705;-54
2022/06/15 09:40:21;;;;;;;324.90;205.73;;;;;;;;;;4983086;28;20257;-54
2022/06/15 09:43:02;;;;;;;230.95;172.70;;;;;;;;;;4995542;28;20224;-54
2022/06/15 09:45:31;;;;;;;275.67;184.30;;;;;;;;;;4982185;28;20262;-54
2022/06/15 09:48:06;;;;;;;269.77;184.32;;;;;;;;;;4991249;28;20228;-54
2022/06/15 09:50:39;;;;;;;314.35;205.52;;;;;;;;;;4984528;28;20235;-54
2022/06/15 09:53:22;;;;;;;312.83;203.10;;;;;;;;;;4981809;28;20573;-55
2022/06/15 09:55:54;;;;;;;247.63;181.85;;;;;;;;;;4987854;28;20267;-55
2022/06/15 09:58:23;;;;;;;288.58;193.38;;;;;;;;;;4993709;28;20256;-53
2022/06/15 10:00:49;;;;;;;243.95;176.20;;;;;;;;;;4978959;28;20209;-54
2022/06/15 10:03:18;;;;;;;275.10;185.73;;;;;;;;;;4987857;28;20227;-55
2022/06/15 10:05:45;;;;;;;254.55;183.80;;;;;;;;;;4982697;28;20271;-54
2022/06/15 10:08:13;;;;;;;316.77;210.07;;;;;;;;;;4988533;28;20220;-55
2022/06/15 10:10:48;;;;;;;337.23;213.80;;;;;;;;;;4990204;28;20218;-54
2022/06/15 10:13:14;;;;;;;280.92;188.02;;;;;;;;;;4987293;28;20254;-54
2022/06/15 10:15:40;;;;;;;356.42;223.52;;;;;;;;;;4980908;28;20221;-55
2022/06/15 10:18:21;;;;;;;290.80;199.90;;;;;;;;;;4989641;28;20222;-54
2022/06/15 10:21:01;;;;;;;301.25;206.80;;;;;;;;;;4987409;28;20291;-55
2022/06/15 10:23:33;;;;;;;324.17;214.75;;;;;;;;;;4991023;28;20220;-55
2022/06/15 10:25:59;;;;;;;337.23;222.57;;;;;;;;;;4980810;28;22994;-54
2022/06/15 10:28:34;;;;;;;356.35;227.18;;;;;;;;;;4979689;28;20574;-54
2022/06/15 10:31:05;;;;;;;334.20;216.68;;;;;;;;;;4984985;28;20219;-54
2022/06/15 10:33:35;;;;;;;369.92;235.02;;;;;;;;;;4988599;28;20571;-55
2022/06/15 10:36:01;;;;;;;363.23;231.73;;;;;;;;;;4979289;28;20651;-53
2022/06/15 10:38:28;;;;;;;372.48;238.52;;;;;;;;;;4979740;28;20215;-54
2022/06/15 10:41:45;;;;;;;292.35;199.85;;;;;;;;;;4991940;28;20218;-54
2022/06/15 10:43:47;;;;;;;288.38;200.43;;;;;;;;;;4983094;28;21070;-55
2022/06/15 10:46:15;;;;;;;359.58;231.25;;;;;;;;;;4987153;28;20698;-54
2022/06/15 10:48:43;;;;;;;324.10;212.98;;;;;;;;;;4986144;28;20213;-54
2022/06/15 10:51:13;;;;;;;379.55;246.45;;;;;;;;;;4989914;28;20208;-54
2022/06/15 10:54:11;;;;;;;340.90;228.57;;;;;;;;;;4987553;28;20189;-55
2022/06/15 11:02:20;;;;;;;381.90;258.50;;;;;;;;;;4986251;28;20288;-54
2022/06/15 11:04:46;;;;;;;317.92;228.60;;;;;;;;;;4984436;28;21045;-54
2022/06/15 11:07:25;;;;;;;370.70;240.13;;;;;;;;;;4984463;28;20213;-55
2022/06/15 11:09:54;;;;;;;360.90;241.75;;;;;;;;;;4981219;28;20221;-54
2022/06/15 11:12:22;;;;;;;320.45;230.88;;;;;;;;;;4992009;28;20229;-54
2022/06/15 11:15:09;;;;;;;327.90;233.82;;;;;;;;;;4993698;28;20173;-55
2022/06/15 11:18:22;;;;;;;344.80;242.68;;;;;;;;;;4990219;28;20193;-55
2022/06/15 11:20:30;;;;;;;391.60;257.75;;;;;;;;;;4994460;28;20597;-55
2022/06/15 11:23:01;;;;;;;358.95;241.13;;;;;;;;;;4991486;28;20852;-54
2022/06/15 11:25:34;;;;;;;365.30;230.85;;;;;;;;;;4994614;28;20209;-55
2022/06/15 11:28:03;;;;;;;374.98;231.90;;;;;;;;;;4992495;28;20249;-55
2022/06/15 11:30:31;;;;;;;387.58;238.00;;;;;;;;;;4998758;28;20266;-55
2022/06/15 11:33:07;;;;;;;364.70;229.80;;;;;;;;;;4997154;28;20217;-54
2022/06/15 11:35:36;;;;;;;386.63;238.32;;;;;;;;;;4996289;28;20190;-54
2022/06/15 11:38:10;;;;;;;372.45;229.52;;;;;;;;;;4995901;28;20270;-54
2022/06/15 11:40:42;;;;;;;362.77;227.43;;;;;;;;;;4996029;28;20314;-55
2022/06/15 11:43:14;;;;;;;349.17;222.30;;;;;;;;;;4996567;28;20262;-54
2022/06/15 11:45:50;;;;;;;354.58;223.20;;;;;;;;;;4995952;28;20239;-54
2022/06/15 11:48:15;;;;;;;354.70;225.45;;;;;;;;;;4987493;28;20225;-53
2022/06/15 11:50:49;;;;;;;356.42;229.50;;;;;;;;;;4995197;28;20268;-55
2022/06/15 11:53:21;;;;;;;359.20;229.65;;;;;;;;;;5001449;28;20173;-55
2022/06/15 11:55:52;;;;;;;365.13;237.45;;;;;;;;;;5001570;28;20254;-54
2022/06/15 11:58:18;;;;;;;383.70;251.43;;;;;;;;;;5006492;28;20229;-55
2022/06/15 12:00:47;;;;;;;352.15;234.10;;;;;;;;;;4998192;28;20805;-55
2022/06/15 12:03:19;;;;;;;367.98;244.68;;;;;;;;;;4996292;28;20253;-54
2022/06/15 12:06:04;;;;;;;379.58;251.93;;;;;;;;;;5001336;28;20253;-55
2022/06/15 12:08:44;;;;;;;388.75;255.77;;;;;;;;;;5002251;28;20241;-54
2022/06/15 12:14:12;;;;;;;376.02;246.95;;;;;;;;;;4999909;28;20216;-55
2022/06/15 12:16:42;;;;;;;409.83;260.88;;;;;;;;;;4993738;28;20711;-54
2022/06/15 12:19:18;;;;;;;399.70;260.63;;;;;;;;;;4999680;28;20220;-55
2022/06/15 12:21:50;;;;;;;374.00;249.13;;;;;;;;;;4998745;28;20303;-55
2022/06/15 12:24:21;;;;;;;359.70;243.98;;;;;;;;;;5004741;28;20278;-55
2022/06/15 12:27:22;;;;;;;394.08;262.52;;;;;;;;;;4999618;28;20197;-55
2022/06/15 12:29:56;;;;;;;406.48;268.33;;;;;;;;;;4994280;28;20275;-55
2022/06/15 12:32:34;;;;;;;379.38;252.10;;;;;;;;;;5010544;28;20228;-54
2022/06/15 12:35:10;;;;;;;387.95;260.13;;;;;;;;;;5012691;28;20297;-54
2022/06/15 12:37:53;;;;;;;367.65;253.50;;;;;;;;;;5012557;28;20226;-53
2022/06/15 12:40:30;;;;;;;342.52;236.02;;;;;;;;;;5013373;28;20723;-54
2022/06/15 12:43:02;;;;;;;353.65;244.55;;;;;;;;;;5013049;28;20295;-54
2022/06/15 12:45:33;;;;;;;397.67;265.65;;;;;;;;;;5011354;28;20228;-54
2022/06/15 12:48:01;;;;;;;345.98;244.23;;;;;;;;;;5012566;28;20233;-55
2022/06/15 12:50:37;;;;;;;358.58;250.90;;;;;;;;;;5013363;28;20183;-54
2022/06/15 12:53:03;;;;;;;362.17;252.93;;;;;;;;;;5008022;28;20267;-54
2022/06/15 12:55:41;;;;;;;358.58;257.33;;;;;;;;;;5011348;28;20290;-55
2022/06/15 12:58:12;;;;;;;368.98;265.35;;;;;;;;;;5008537;28;20228;-54
2022/06/15 13:00:50;;;;;;;358.27;260.42;;;;;;;;;;5018507;28;20676;-54
2022/06/15 13:03:35;;;;;;;361.10;263.45;;;;;;;;;;5021886;28;20560;-54
2022/06/15 13:06:30;;;;;;;395.20;271.15;;;;;;;;;;5018789;28;20288;-54
2022/06/15 13:09:14;;;;;;;359.52;261.38;;;;;;;;;;5015161;28;20282;-54
2022/06/15 13:12:04;;;;;;;365.48;269.85;;;;;;;;;;5012489;28;20632;-55
2022/06/15 13:14:45;;;;;;;364.20;269.63;;;;;;;;;;5012286;28;20180;-55
2022/06/15 13:17:15;;;;;;;361.20;268.27;;;;;;;;;;5012317;28;20577;-55
2022/06/15 13:19:45;;;;;;;354.52;268.00;;;;;;;;;;5012371;28;20342;-54
2022/06/15 13:22:32;;;;;;;354.45;272.05;;;;;;;;;;5016320;28;20209;-55
2022/06/15 13:25:04;;;;;;;374.15;277.88;;;;;;;;;;5003511;28;20640;-54
2022/06/15 13:27:32;;;;;;;397.02;299.02;;;;;;;;;;5011397;28;20213;-55
2022/06/15 13:30:17;;;;;;;386.30;291.08;;;;;;;;;;5015029;28;20220;-54
2022/06/15 13:32:52;;;;;;;379.23;294.58;;;;;;;;;;5031661;28;20187;-53
2022/06/15 13:35:41;;;;;;;381.90;319.27;;;;;;;;;;5031783;28;20249;-52
2022/06/15 13:38:31;;;;;;;392.50;297.13;;;;;;;;;;5029034;28;20212;-52
2022/06/15 13:41:00;;;;;;;376.00;298.83;;;;;;;;;;5015661;28;20233;-52
2022/06/15 13:43:29;;;;;;;393.13;325.90;;;;;;;;;;5011281;28;20796;-52
2022/06/15 13:45:57;;;;;;;395.83;327.70;;;;;;;;;;5022216;28;20238;-53
2022/06/15 13:48:35;;;;;;;386.02;312.17;;;;;;;;;;5015537;28;20697;-53
2022/06/15 13:51:06;;;;;;;372.40;314.25;;;;;;;;;;5011588;28;20286;-54
2022/06/15 13:53:48;;;;;;;363.75;308.42;;;;;;;;;;5012770;28;20219;-55
2022/06/15 13:56:32;;;;;;;364.48;309.55;;;;;;;;;;5012047;28;20205;-55
2022/06/15 13:59:07;;;;;;;386.73;343.05;;;;;;;;;;5030957;28;20502;-54
2022/06/15 14:01:59;;;;;;;376.77;335.35;;;;;;;;;;5021851;28;20219;-53
2022/06/15 14:04:44;;;;;;;382.75;335.02;;;;;;;;;;5010125;28;20216;-54
2022/06/15 14:07:16;;;;;;;374.10;332.73;;;;;;;;;;5011555;28;20217;-53
2022/06/15 14:10:08;;;;;;;377.80;334.83;;;;;;;;;;5011081;28;20315;-53
2022/06/15 14:12:37;;;;;;;371.63;329.35;;;;;;;;;;5010946;28;20216;-53
2022/06/15 14:15:06;;;;;;;381.58;339.08;;;;;;;;;;5009706;28;20213;-53
2022/06/15 14:17:49;;;;;;;382.88;341.15;;;;;;;;;;5011296;28;20523;-53
2022/06/15 14:20:26;;;;;;;376.83;335.83;;;;;;;;;;5011174;28;20292;-53
2022/06/15 14:22:56;;;;;;;409.58;366.00;;;;;;;;;;5011401;28;20283;-53
2022/06/15 14:25:22;;;;;;;388.38;346.17;;;;;;;;;;5011206;28;20216;-53
2022/06/15 14:27:53;;;;;;;401.52;359.63;;;;;;;;;;5011144;28;20224;-54
2022/06/15 14:30:25;;;;;;;411.30;367.50;;;;;;;;;;5011011;28;20224;-54
2022/06/15 14:32:59;;;;;;;425.55;381.80;;;;;;;;;;5009635;28;20178;-54